Latest Coastal Weather Observations for Milingimbi

IDD60701

Issued at 3:11 pm CST Friday 9 December 2016 (issued every 10 minutes, with the page automatically refreshed every 10 minutes)

About coastal observations | Map of coastal stations | Coastal observations for NT | Marine services | Other Formats
Station Details ID: 014404 Name: MILINGIMBI AIRPORT Lat: -12.09 Lon: 134.89 Height: 15.0 m
Data from the previous 72 hours. | See also: Recent months at Milingimbi
Date/Time
CST
Temp
°C
Wind Pressure Rain since
9am
mm
Weather Cloud Vis
km
Sea
Height
m
Swell
Dir  Spd
kts
Gust
kts
hPa Trend Height
m
Period
s
Dir
09/03:00pm 33.4 N 7 13 1006.5 - 0.0 - - - - - - -
09/02:30pm 33.8 N 8 13 1007.1 - 0.0 - - - - - - -
09/02:00pm 33.8 N 8 13 1007.5 - 0.0 - - - - - - -
09/01:30pm 33.9 NE 7 10 1007.6 - 0.0 - - - - - - -
09/01:00pm 33.4 NE 7 12 1007.9 - 0.0 - - - - - - -
09/12:30pm 33.6 ENE 9 13 1008.1 - 0.0 - - - - - - -
09/12:00pm 33.6 E 8 12 1008.3 - 0.0 - - - - - - -
09/11:30am 33.6 E 7 13 1008.5 - 0.0 - - - - - - -
09/11:00am 33.4 NE 7 10 1008.9 - 0.0 - - - - - - -
09/10:30am 32.4 E 7 11 1009.3 - 0.0 - - - - - - -
09/10:00am 32.3 E 7 10 1009.7 - 0.0 - - - - - - -
09/09:30am 32.2 ESE 8 12 1009.7 - 0.0 - - - - - - -
09/09:00am 31.3 E 9 13 1009.2 - 0.0 - - - - - - -
09/08:30am 30.7 E 7 11 1009.4 - 0.0 - - - - - - -
09/08:00am 30.5 ESE 7 10 1009.2 - 0.0 - - - - - - -
09/07:30am 28.0 SSE 4 6 1009.1 - 0.0 - - - - - - -
09/07:00am 26.8 SSE 4 6 1008.9 - 0.0 - - - - - - -
09/06:30am 26.6 SSE 5 7 1008.5 - 0.0 - - - - - - -
09/06:00am 26.1 S 4 6 1007.8 - 0.0 - - - - - - -
09/05:30am 26.1 ENE 1 3 1007.5 - 0.0 - - - - - - -
09/05:00am 26.5 E 2 4 1007.3 - 0.0 - - - - - - -
09/04:30am 26.5 CALM 0 0 1006.9 - 0.0 - - - - - - -
09/04:00am 27.0 CALM 0 0 1006.8 - 0.0 - - - - - - -
09/03:30am 27.5 ENE 2 3 1006.7 - 0.0 - - - - - - -
09/03:00am 28.1 NNE 3 5 1006.6 - 0.0 - - - - - - -
09/02:30am 28.4 NE 4 6 1007.0 - 0.0 - - - - - - -
09/02:00am 28.5 NE 4 5 1007.3 - 0.0 - - - - - - -
09/01:30am 28.6 NE 4 6 1007.5 - 0.0 - - - - - - -
09/01:00am 28.8 NE 3 5 1007.6 - 0.0 - - - - - - -
09/12:30am 28.8 NNE 3 5 1007.7 - 0.0 - - - - - - -
09/12:00am 29.1 NE 4 6 1007.6 - 0.0 - - - - - - -
 
Date/Time
CST
Temp
°C
Wind Pressure Rain since
9am
mm
Weather Cloud Vis
km
Sea
Height
m
Swell
Dir  Spd
kts
Gust
kts
hPa Trend Height
m
Period
s
Dir
08/11:30pm 29.3 NE 4 7 1008.0 - 0.0 - - - - - - -
08/11:00pm 29.4 NE 5 8 1007.9 - 0.0 - - - - - - -
08/10:30pm 29.5 NE 5 9 1007.7 - 0.0 - - - - - - -
08/10:00pm 29.5 NE 4 6 1007.3 - 0.0 - - - - - - -
08/09:30pm 29.6 NE 5 9 1006.8 - 0.0 - - - - - - -
08/09:00pm 29.6 NE 5 8 1006.3 - 0.0 - - - - - - -
08/08:30pm 29.6 NE 5 7 1006.4 - 0.0 - - - - - - -
08/08:00pm 29.7 NNE 4 8 1006.2 - 0.0 - - - - - - -
08/07:30pm 30.0 NNE 5 8 1006.0 - 0.0 - - - - - - -
08/07:00pm 30.4 NNE 5 9 1005.9 - 0.0 - - - - - - -
08/06:30pm 30.5 N 6 9 1005.5 - 0.0 - - - - - - -
08/06:00pm 31.1 NNE 7 11 1005.0 - 0.0 - - - - - - -
08/05:30pm 31.8 NNE 7 11 1005.1 - 0.0 - - - - - - -
08/05:00pm 32.0 N 7 12 1004.8 - 0.0 - - - - - - -
08/04:30pm 32.8 N 7 10 1004.7 - 0.0 - - - - - - -
08/04:00pm 32.6 NNE 8 14 1004.7 - 0.0 - - - - - - -
08/03:30pm 33.2 NNE 7 11 1004.8 - 0.0 - - - - - - -
08/03:00pm 33.1 N 8 12 1004.7 - 0.0 - - - - - - -
08/02:30pm 33.2 NNE 8 13 1005.1 - 0.0 - - - - - - -
08/02:00pm 32.9 N 7 13 1005.5 - 0.0 - - - - - - -
08/01:30pm 32.9 NE 7 11 1006.0 - 0.0 - - - - - - -
08/01:00pm 32.7 NE 8 14 1006.3 - 0.0 - - - - - - -
08/12:30pm 33.1 NNE 7 11 1006.7 - 0.0 - - - - - - -
08/12:00pm 32.2 NNE 7 11 1006.9 - 0.0 - - - - - - -
08/11:30am 33.2 ENE 6 9 1007.4 - 0.0 - - - - - - -
08/11:00am 31.8 ENE 7 11 1007.6 - 0.0 - - - - - - -
08/10:30am 32.4 E 7 10 1007.9 - 0.0 - - - - - - -
08/10:00am 32.5 ENE 5 8 1008.1 - 0.0 - - - - - - -
08/09:30am 31.9 ENE 5 10 1008.1 - 0.0 - - - - - - -
08/09:00am 31.5 ENE 4 8 1008.0 - 0.0 - - - - - - -
08/08:30am 30.7 ENE 4 7 1008.4 - 0.0 - - - - - - -
08/08:00am 29.5 ENE 4 6 1008.5 - 0.0 - - - - - - -
08/07:30am 29.0 ESE 3 5 1008.4 - 0.0 - - - - - - -
08/07:00am 27.9 SSE 4 5 1008.4 - 0.0 - - - - - - -
08/06:30am 26.5 S 3 5 1008.1 - 0.0 - - - - - - -
08/06:00am 26.2 SSE 3 4 1007.7 - 0.0 - - - - - - -
08/05:30am 26.5 SSE 5 6 1007.7 - 0.0 - - - - - - -
08/05:00am 26.8 S 4 5 1007.5 - 0.0 - - - - - - -
08/04:30am 27.1 SSE 5 7 1007.2 - 0.0 - - - - - - -
08/04:00am 26.9 S 4 5 1007.1 - 0.0 - - - - - - -
08/03:30am 26.9 SW 3 5 1007.0 - 0.0 - - - - - - -
08/03:00am 26.8 SSW 4 5 1006.7 - 0.0 - - - - - - -
08/02:30am 26.8 ENE 3 4 1007.1 - 0.0 - - - - - - -
08/02:00am 27.0 CALM 0 0 1007.3 - 0.0 - - - - - - -
08/01:30am 27.2 E 2 3 1007.5 - 0.0 - - - - - - -
08/01:00am 27.3 CALM 0 0 1007.5 - 0.0 - - - - - - -
08/12:30am 27.8 ENE 3 4 1007.7 - 0.0 - - - - - - -
08/12:00am 28.2 NE 4 5 1007.6 - 0.0 - - - - - - -
 
Date/Time
CST
Temp
°C
Wind Pressure Rain since
9am
mm
Weather Cloud Vis
km
Sea
Height
m
Swell
Dir  Spd
kts
Gust
kts
hPa Trend Height
m
Period
s
Dir
07/11:30pm 28.3 NE 2 5 1008.1 - 0.0 - - - - - - -
07/11:00pm 28.6 ENE 1 4 1008.5 - 0.0 - - - - - - -
07/10:30pm 29.1 NE 4 6 1008.7 - 0.0 - - - - - - -
07/10:00pm 29.3 NE 6 9 1008.5 - 0.0 - - - - - - -
07/09:30pm 29.5 NNE 5 9 1008.3 - 0.0 - - - - - - -
07/09:00pm 29.6 NNE 6 9 1008.0 - 0.0 - - - - - - -
07/08:30pm 29.7 NNE 6 11 1007.8 - 0.0 - - - - - - -
07/08:00pm 29.8 NNE 6 10 1007.4 - 0.0 - - - - - - -
07/07:30pm 29.7 N 4 6 1006.8 - 0.0 - - - - - - -
07/07:00pm 29.8 N 4 7 1006.4 - 0.0 - - - - - - -
07/06:30pm 30.3 NNW 6 9 1006.1 - 0.0 - - - - - - -
07/06:00pm 31.1 N 6 10 1005.7 - 0.0 - - - - - - -
07/05:30pm 31.3 N 6 10 1005.9 - 0.0 - - - - - - -
07/05:00pm 31.6 N 8 13 1005.7 - 0.0 - - - - - - -
07/04:30pm 31.9 N 7 12 1005.8 - 0.0 - - - - - - -
07/04:00pm 32.1 N 8 14 1005.7 - 0.0 - - - - - - -
07/03:30pm 32.5 N 7 13 1005.8 - 0.0 - - - - - - -
07/03:00pm 33.1 N 7 13 1005.8 - 0.0 - - - - - - -
07/02:30pm 32.9 N 9 14 1006.4 - 0.0 - - - - - - -
07/02:00pm 33.5 N 8 11 1006.7 - 0.0 - - - - - - -
07/01:30pm 33.8 NNE 7 11 1007.0 - 0.0 - - - - - - -
07/01:00pm 33.4 ENE 7 11 1007.4 - 0.0 - - - - - - -
07/12:30pm 33.4 E 7 11 1007.9 - 0.0 - - - - - - -
07/12:00pm 33.2 ENE 6 9 1008.2 - 0.0 - - - - - - -
07/11:30am 32.3 NE 6 10 1009.0 - 0.0 - - - - - - -
07/11:00am 32.2 E 7 10 1009.3 - 0.0 - - - - - - -
07/10:30am 32.0 E 6 10 1009.7 - 0.0 - - - - - - -
07/10:00am 31.6 E 6 9 1009.9 - 0.0 - - - - - - -
07/09:30am 31.3 ESE 7 12 1010.2 - 0.0 - - - - - - -
07/09:00am 30.4 ESE 8 11 1010.4 - 7.8 - - - - - - -
07/08:30am 30.3 ESE 9 11 1010.6 - 7.8 - - - - - - -
07/08:00am 29.5 SE 6 9 1010.5 - 7.8 - - - - - - -
07/07:30am 28.7 SSE 6 8 1010.3 - 7.8 - - - - - - -
07/07:00am 28.0 SSE 5 6 1009.9 - 7.8 - - - - - - -
07/06:30am 27.1 S 3 5 1009.7 - 7.8 - - - - - - -
07/06:00am 26.6 S 4 5 1009.1 - 7.8 - - - - - - -
07/05:30am 26.6 SSE 3 5 1008.8 - 7.8 - - - - - - -
07/05:00am 26.5 SSE 1 5 1008.5 - 7.8 - - - - - - -
07/04:30am 26.4 S 4 5 1008.4 - 7.8 - - - - - - -
07/04:00am 26.0 S 1 4 1008.2 - 7.8 - - - - - - -
07/03:30am 25.4 CALM 0 0 1008.0 - 7.8 - - - - - - -
07/03:00am 25.0 CALM 0 0 1007.5 - 7.8 - - - - - - -
07/02:30am 24.1 E 4 6 1007.9 - 7.8 - - - - - - -
07/02:00am 24.1 ENE 7 11 1008.0 - 7.8 - - - - - - -
07/01:59am 24.2 ENE 7 18 1008.0 - 7.8 - - - - - - -
07/01:30am 29.2 CALM 0 0 1007.9 - 0.0 - - - - - - -
07/01:00am 28.8 NNE 1 3 1008.2 - 0.0 - - - - - - -
07/12:30am 29.3 NNE 2 4 1008.4 - 0.0 - - - - - - -
07/12:00am 29.6 ENE 3 7 1008.6 - 0.0 - - - - - - -
 
Date/Time
CST
Temp
°C
Wind Pressure Rain since
9am
mm
Weather Cloud Vis
km
Sea
Height
m
Swell
Dir  Spd
kts
Gust
kts
hPa Trend Height
m
Period
s
Dir
06/11:30pm 29.8 NNE 4 6 1009.0 - 0.0 - - - - - - -
06/11:00pm 29.7 N 3 5 1009.0 - 0.0 - - - - - - -
06/10:30pm 29.8 NNE 5 7 1008.8 - 0.0 - - - - - - -
06/10:00pm 29.9 NNE 4 8 1008.7 - 0.0 - - - - - - -
06/09:30pm 30.0 NNE 5 7 1008.5 - 0.0 - - - - - - -
06/09:00pm 30.1 NNE 5 9 1008.2 - 0.0 - - - - - - -
06/08:30pm 30.3 NNE 5 8 1008.1 - 0.0 - - - - - - -
06/08:00pm 30.3 NNE 6 11 1007.7 - 0.0 - - - - - - -
06/07:30pm 30.5 NNE 6 13 1007.1 - 0.0 - - - - - - -
06/07:00pm 30.7 NNE 6 11 1007.1 - 0.0 - - - - - - -
06/06:30pm 30.7 NNE 6 9 1006.8 - 0.0 - - - - - - -
06/06:00pm 30.9 NNE 7 13 1006.4 - 0.0 - - - - - - -
06/05:30pm 31.3 NNE 7 13 1006.5 - 0.0 - - - - - - -
06/05:00pm 31.8 NNE 8 13 1006.3 - 0.0 - - - - - - -
06/04:30pm 32.7 NNE 7 11 1006.2 - 0.0 - - - - - - -
06/04:00pm 32.9 N 8 13 1006.4 - 0.0 - - - - - - -
06/03:30pm 33.3 NNE 8 12 1006.5 - 0.0 - - - - - - -

Other Formats:

Comma delimited format used in spreadsheet applications
http://www.bom.gov.au/fwo/IDD60701/IDD60701.94140.axf

JavaScript Object Notation format (JSON) in row-major order
http://www.bom.gov.au/fwo/IDD60701/IDD60701.94140.json